sensor_id;sensor_type;location;lat;lon;timestamp;P1;durP1;ratioP1;P2;durP2;ratioP2
53644;SDS011;39547;45.554;12.068;2023-03-14T00:02:43;24.02;;;13.43;;
53644;SDS011;39547;45.554;12.068;2023-03-14T00:08:45;27.48;;;14.68;;
53644;SDS011;39547;45.554;12.068;2023-03-14T00:14:46;23.25;;;13.00;;
53644;SDS011;39547;45.554;12.068;2023-03-14T00:20:48;24.88;;;12.95;;
53644;SDS011;39547;45.554;12.068;2023-03-14T00:26:49;25.60;;;14.35;;
53644;SDS011;39547;45.554;12.068;2023-03-14T00:32:50;19.95;;;10.98;;
53644;SDS011;39547;45.554;12.068;2023-03-14T00:38:52;27.75;;;13.88;;
53644;SDS011;39547;45.554;12.068;2023-03-14T00:44:53;21.73;;;11.40;;
53644;SDS011;39547;45.554;12.068;2023-03-14T00:50:55;21.85;;;11.77;;
53644;SDS011;39547;45.554;12.068;2023-03-14T00:56:56;26.88;;;14.38;;
53644;SDS011;39547;45.554;12.068;2023-03-14T01:02:58;23.30;;;12.32;;
53644;SDS011;39547;45.554;12.068;2023-03-14T01:08:59;23.40;;;11.80;;
53644;SDS011;39547;45.554;12.068;2023-03-14T01:15:01;27.85;;;12.57;;
53644;SDS011;39547;45.554;12.068;2023-03-14T01:21:04;32.28;;;14.52;;
53644;SDS011;39547;45.554;12.068;2023-03-14T01:27:11;24.17;;;12.23;;
53644;SDS011;39547;45.554;12.068;2023-03-14T01:33:13;21.02;;;11.07;;
53644;SDS011;39547;45.554;12.068;2023-03-14T01:58:09;23.23;;;11.52;;
53644;SDS011;39547;45.554;12.068;2023-03-14T02:04:10;23.80;;;12.30;;
53644;SDS011;39547;45.554;12.068;2023-03-14T02:10:16;25.83;;;11.75;;
53644;SDS011;39547;45.554;12.068;2023-03-14T02:16:20;19.67;;;9.85;;
53644;SDS011;39547;45.554;12.068;2023-03-14T02:22:22;20.33;;;9.88;;
53644;SDS011;39547;45.554;12.068;2023-03-14T02:28:29;20.00;;;9.20;;
53644;SDS011;39547;45.554;12.068;2023-03-14T02:34:33;21.75;;;10.68;;
53644;SDS011;39547;45.554;12.068;2023-03-14T02:40:37;20.67;;;9.18;;
53644;SDS011;39547;45.554;12.068;2023-03-14T02:46:39;26.40;;;13.52;;
53644;SDS011;39547;45.554;12.068;2023-03-14T02:52:40;25.08;;;11.95;;
53644;SDS011;39547;45.554;12.068;2023-03-14T02:58:42;22.38;;;10.80;;
53644;SDS011;39547;45.554;12.068;2023-03-14T03:05:06;21.17;;;9.68;;
53644;SDS011;39547;45.554;12.068;2023-03-14T03:11:08;18.50;;;8.68;;
53644;SDS011;39547;45.554;12.068;2023-03-14T03:17:10;17.15;;;7.95;;
53644;SDS011;39547;45.554;12.068;2023-03-14T03:23:13;21.05;;;10.02;;
53644;SDS011;39547;45.554;12.068;2023-03-14T03:29:14;20.70;;;9.73;;
53644;SDS011;39547;45.554;12.068;2023-03-14T03:35:16;24.65;;;10.80;;
53644;SDS011;39547;45.554;12.068;2023-03-14T03:41:18;18.15;;;7.90;;
53644;SDS011;39547;45.554;12.068;2023-03-14T03:47:21;20.80;;;9.93;;
53644;SDS011;39547;45.554;12.068;2023-03-14T03:53:23;18.48;;;7.97;;
53644;SDS011;39547;45.554;12.068;2023-03-14T03:59:25;19.70;;;9.77;;
53644;SDS011;39547;45.554;12.068;2023-03-14T04:05:26;15.48;;;6.88;;
53644;SDS011;39547;45.554;12.068;2023-03-14T04:11:34;19.35;;;9.40;;
53644;SDS011;39547;45.554;12.068;2023-03-14T04:17:40;17.15;;;7.78;;
53644;SDS011;39547;45.554;12.068;2023-03-14T04:23:42;17.25;;;7.65;;
53644;SDS011;39547;45.554;12.068;2023-03-14T04:29:43;18.45;;;8.32;;
53644;SDS011;39547;45.554;12.068;2023-03-14T04:35:53;19.23;;;8.00;;
53644;SDS011;39547;45.554;12.068;2023-03-14T04:41:55;20.90;;;9.15;;
53644;SDS011;39547;45.554;12.068;2023-03-14T04:47:57;18.70;;;9.07;;
53644;SDS011;39547;45.554;12.068;2023-03-14T04:53:58;19.83;;;9.20;;
53644;SDS011;39547;45.554;12.068;2023-03-14T05:00:01;19.98;;;9.25;;
53644;SDS011;39547;45.554;12.068;2023-03-14T05:06:35;21.00;;;10.68;;
53644;SDS011;39547;45.554;12.068;2023-03-14T05:12:42;21.25;;;10.07;;
53644;SDS011;39547;45.554;12.068;2023-03-14T05:19:02;18.05;;;8.05;;
53644;SDS011;39547;45.554;12.068;2023-03-14T05:25:23;19.95;;;8.73;;
53644;SDS011;39547;45.554;12.068;2023-03-14T05:31:45;18.38;;;8.05;;
53644;SDS011;39547;45.554;12.068;2023-03-14T05:38:14;20.15;;;9.05;;
53644;SDS011;39547;45.554;12.068;2023-03-14T05:44:27;18.58;;;7.97;;
53644;SDS011;39547;45.554;12.068;2023-03-14T05:50:32;19.52;;;9.25;;
53644;SDS011;39547;45.554;12.068;2023-03-14T05:56:51;18.80;;;8.77;;
53644;SDS011;39547;45.554;12.068;2023-03-14T06:03:21;18.17;;;7.20;;
53644;SDS011;39547;45.554;12.068;2023-03-14T06:09:23;18.95;;;7.85;;
53644;SDS011;39547;45.554;12.068;2023-03-14T06:15:27;21.48;;;9.38;;
53644;SDS011;39547;45.554;12.068;2023-03-14T06:21:30;18.42;;;8.07;;
53644;SDS011;39547;45.554;12.068;2023-03-14T06:27:32;18.98;;;8.23;;
53644;SDS011;39547;45.554;12.068;2023-03-14T06:33:34;19.10;;;8.30;;
53644;SDS011;39547;45.554;12.068;2023-03-14T06:39:36;16.95;;;7.38;;
53644;SDS011;39547;45.554;12.068;2023-03-14T06:45:46;17.83;;;7.50;;
53644;SDS011;39547;45.554;12.068;2023-03-14T06:51:47;17.77;;;7.15;;
53644;SDS011;39547;45.554;12.068;2023-03-14T06:57:49;18.85;;;6.72;;
53644;SDS011;39547;45.554;12.068;2023-03-14T07:03:51;19.67;;;8.75;;
53644;SDS011;39547;45.554;12.068;2023-03-14T07:09:52;16.40;;;6.45;;
53644;SDS011;39547;45.554;12.068;2023-03-14T07:15:54;20.35;;;8.65;;
53644;SDS011;39547;45.554;12.068;2023-03-14T07:21:55;18.25;;;7.80;;
53644;SDS011;39547;45.554;12.068;2023-03-14T07:28:01;16.65;;;6.85;;
53644;SDS011;39547;45.554;12.068;2023-03-14T07:34:03;22.83;;;9.57;;
53644;SDS011;39547;45.554;12.068;2023-03-14T07:40:10;20.02;;;8.00;;
53644;SDS011;39547;45.554;12.068;2023-03-14T07:46:15;18.58;;;7.82;;
53644;SDS011;39547;45.554;12.068;2023-03-14T07:52:18;20.67;;;8.60;;
53644;SDS011;39547;45.554;12.068;2023-03-14T07:58:19;19.15;;;8.27;;
53644;SDS011;39547;45.554;12.068;2023-03-14T08:04:22;19.70;;;8.63;;
53644;SDS011;39547;45.554;12.068;2023-03-14T08:10:24;16.70;;;7.20;;
53644;SDS011;39547;45.554;12.068;2023-03-14T08:16:25;17.73;;;8.05;;
53644;SDS011;39547;45.554;12.068;2023-03-14T08:22:27;22.50;;;11.00;;
53644;SDS011;39547;45.554;12.068;2023-03-14T08:28:28;24.98;;;11.80;;
53644;SDS011;39547;45.554;12.068;2023-03-14T08:34:32;23.70;;;11.18;;
53644;SDS011;39547;45.554;12.068;2023-03-14T08:40:34;28.13;;;12.93;;
53644;SDS011;39547;45.554;12.068;2023-03-14T08:46:35;22.63;;;9.98;;
53644;SDS011;39547;45.554;12.068;2023-03-14T08:52:37;25.80;;;12.48;;
53644;SDS011;39547;45.554;12.068;2023-03-14T08:58:40;22.77;;;10.03;;
53644;SDS011;39547;45.554;12.068;2023-03-14T09:04:42;20.02;;;9.02;;
53644;SDS011;39547;45.554;12.068;2023-03-14T09:10:44;27.02;;;12.32;;
53644;SDS011;39547;45.554;12.068;2023-03-14T09:16:45;25.35;;;10.98;;
53644;SDS011;39547;45.554;12.068;2023-03-14T09:22:47;21.65;;;10.50;;
53644;SDS011;39547;45.554;12.068;2023-03-14T09:28:49;26.08;;;12.55;;
53644;SDS011;39547;45.554;12.068;2023-03-14T09:34:50;23.35;;;10.48;;
53644;SDS011;39547;45.554;12.068;2023-03-14T09:40:52;25.30;;;10.82;;
53644;SDS011;39547;45.554;12.068;2023-03-14T09:46:55;23.13;;;10.80;;
53644;SDS011;39547;45.554;12.068;2023-03-14T09:53:02;24.65;;;10.73;;
53644;SDS011;39547;45.554;12.068;2023-03-14T09:59:08;25.23;;;11.32;;
53644;SDS011;39547;45.554;12.068;2023-03-14T10:05:18;23.92;;;10.20;;
53644;SDS011;39547;45.554;12.068;2023-03-14T10:11:22;22.95;;;9.05;;
53644;SDS011;39547;45.554;12.068;2023-03-14T10:17:24;19.92;;;8.32;;
53644;SDS011;39547;45.554;12.068;2023-03-14T10:23:27;20.15;;;9.45;;
53644;SDS011;39547;45.554;12.068;2023-03-14T10:29:34;23.08;;;10.30;;
53644;SDS011;39547;45.554;12.068;2023-03-14T10:35:57;24.00;;;10.35;;
53644;SDS011;39547;45.554;12.068;2023-03-14T10:42:03;22.40;;;9.73;;
53644;SDS011;39547;45.554;12.068;2023-03-14T10:48:33;22.90;;;8.98;;
53644;SDS011;39547;45.554;12.068;2023-03-14T10:54:36;27.50;;;11.05;;
53644;SDS011;39547;45.554;12.068;2023-03-14T11:00:38;26.92;;;11.07;;
53644;SDS011;39547;45.554;12.068;2023-03-14T11:13:00;21.10;;;9.50;;
53644;SDS011;39547;45.554;12.068;2023-03-14T11:19:15;18.90;;;7.53;;
53644;SDS011;39547;45.554;12.068;2023-03-14T11:31:55;16.42;;;5.82;;
53644;SDS011;39547;45.554;12.068;2023-03-14T11:44:18;14.77;;;5.47;;
53644;SDS011;39547;45.554;12.068;2023-03-14T11:50:23;16.92;;;6.18;;
53644;SDS011;39547;45.554;12.068;2023-03-14T11:56:29;14.68;;;5.30;;
53644;SDS011;39547;45.554;12.068;2023-03-14T12:09:02;15.07;;;4.95;;
53644;SDS011;39547;45.554;12.068;2023-03-14T12:15:04;15.77;;;5.50;;
53644;SDS011;39547;45.554;12.068;2023-03-14T12:21:18;15.68;;;5.43;;
53644;SDS011;39547;45.554;12.068;2023-03-14T12:33:43;15.93;;;4.82;;
53644;SDS011;39547;45.554;12.068;2023-03-14T12:40:06;13.38;;;4.60;;
53644;SDS011;39547;45.554;12.068;2023-03-14T12:46:31;12.80;;;4.25;;
53644;SDS011;39547;45.554;12.068;2023-03-14T12:52:35;14.05;;;4.97;;
53644;SDS011;39547;45.554;12.068;2023-03-14T13:05:03;13.82;;;4.72;;
53644;SDS011;39547;45.554;12.068;2023-03-14T13:11:23;14.68;;;4.68;;
53644;SDS011;39547;45.554;12.068;2023-03-14T13:17:27;16.27;;;5.28;;
53644;SDS011;39547;45.554;12.068;2023-03-14T13:23:32;15.20;;;4.90;;
53644;SDS011;39547;45.554;12.068;2023-03-14T13:29:36;15.10;;;5.10;;
53644;SDS011;39547;45.554;12.068;2023-03-14T13:35:59;17.10;;;5.75;;
53644;SDS011;39547;45.554;12.068;2023-03-14T13:42:01;14.82;;;4.75;;
53644;SDS011;39547;45.554;12.068;2023-03-14T13:48:03;15.68;;;5.53;;
53644;SDS011;39547;45.554;12.068;2023-03-14T13:54:12;16.58;;;5.22;;
53644;SDS011;39547;45.554;12.068;2023-03-14T14:00:19;14.50;;;5.40;;
53644;SDS011;39547;45.554;12.068;2023-03-14T14:06:32;18.52;;;5.43;;
53644;SDS011;39547;45.554;12.068;2023-03-14T14:12:38;17.17;;;6.22;;
53644;SDS011;39547;45.554;12.068;2023-03-14T14:18:52;16.30;;;5.10;;
53644;SDS011;39547;45.554;12.068;2023-03-14T14:24:56;22.25;;;6.50;;
53644;SDS011;39547;45.554;12.068;2023-03-14T14:30:59;15.05;;;5.45;;
53644;SDS011;39547;45.554;12.068;2023-03-14T14:37:13;18.27;;;6.07;;
53644;SDS011;39547;45.554;12.068;2023-03-14T14:43:23;17.47;;;5.67;;
53644;SDS011;39547;45.554;12.068;2023-03-14T14:49:29;15.55;;;5.10;;
53644;SDS011;39547;45.554;12.068;2023-03-14T14:55:33;16.00;;;5.65;;
53644;SDS011;39547;45.554;12.068;2023-03-14T15:01:39;14.90;;;5.32;;
53644;SDS011;39547;45.554;12.068;2023-03-14T15:07:42;15.00;;;5.07;;
53644;SDS011;39547;45.554;12.068;2023-03-14T15:13:44;14.88;;;4.80;;
53644;SDS011;39547;45.554;12.068;2023-03-14T15:19:46;16.35;;;5.30;;
53644;SDS011;39547;45.554;12.068;2023-03-14T15:25:48;18.20;;;6.07;;
53644;SDS011;39547;45.554;12.068;2023-03-14T15:31:49;14.50;;;4.70;;
53644;SDS011;39547;45.554;12.068;2023-03-14T15:37:51;13.75;;;4.60;;
53644;SDS011;39547;45.554;12.068;2023-03-14T15:43:52;14.82;;;4.85;;
53644;SDS011;39547;45.554;12.068;2023-03-14T15:49:55;14.68;;;4.75;;
53644;SDS011;39547;45.554;12.068;2023-03-14T15:55:56;15.57;;;4.47;;
53644;SDS011;39547;45.554;12.068;2023-03-14T16:01:57;13.73;;;4.25;;
53644;SDS011;39547;45.554;12.068;2023-03-14T16:08:00;14.60;;;4.38;;
53644;SDS011;39547;45.554;12.068;2023-03-14T16:14:03;15.35;;;4.70;;
53644;SDS011;39547;45.554;12.068;2023-03-14T16:20:05;13.93;;;4.63;;
53644;SDS011;39547;45.554;12.068;2023-03-14T16:26:09;16.60;;;5.43;;
53644;SDS011;39547;45.554;12.068;2023-03-14T16:38:13;16.85;;;5.88;;
53644;SDS011;39547;45.554;12.068;2023-03-14T16:44:15;16.20;;;5.90;;
53644;SDS011;39547;45.554;12.068;2023-03-14T16:50:16;21.70;;;8.80;;
53644;SDS011;39547;45.554;12.068;2023-03-14T16:56:18;19.10;;;7.22;;
53644;SDS011;39547;45.554;12.068;2023-03-14T17:02:20;18.70;;;7.60;;
53644;SDS011;39547;45.554;12.068;2023-03-14T17:08:21;19.58;;;7.10;;
53644;SDS011;39547;45.554;12.068;2023-03-14T17:14:23;23.92;;;10.40;;
53644;SDS011;39547;45.554;12.068;2023-03-14T17:20:26;19.33;;;8.43;;
53644;SDS011;39547;45.554;12.068;2023-03-14T17:26:27;19.10;;;7.95;;
53644;SDS011;39547;45.554;12.068;2023-03-14T17:32:29;20.88;;;9.07;;
53644;SDS011;39547;45.554;12.068;2023-03-14T17:38:31;22.33;;;9.02;;
53644;SDS011;39547;45.554;12.068;2023-03-14T17:44:33;18.05;;;7.40;;
53644;SDS011;39547;45.554;12.068;2023-03-14T17:50:35;19.67;;;8.68;;
53644;SDS011;39547;45.554;12.068;2023-03-14T17:56:37;21.58;;;8.25;;
53644;SDS011;39547;45.554;12.068;2023-03-14T18:02:39;20.48;;;9.20;;
53644;SDS011;39547;45.554;12.068;2023-03-14T18:08:41;17.23;;;7.75;;
53644;SDS011;39547;45.554;12.068;2023-03-14T18:14:43;20.52;;;9.02;;
53644;SDS011;39547;45.554;12.068;2023-03-14T18:20:48;27.52;;;11.32;;
53644;SDS011;39547;45.554;12.068;2023-03-14T18:26:51;20.88;;;9.77;;
53644;SDS011;39547;45.554;12.068;2023-03-14T18:32:52;20.73;;;8.70;;
53644;SDS011;39547;45.554;12.068;2023-03-14T18:38:53;20.85;;;8.85;;
53644;SDS011;39547;45.554;12.068;2023-03-14T18:44:56;20.75;;;8.40;;
53644;SDS011;39547;45.554;12.068;2023-03-14T18:50:58;24.05;;;10.13;;
53644;SDS011;39547;45.554;12.068;2023-03-14T18:57:00;22.58;;;8.73;;
53644;SDS011;39547;45.554;12.068;2023-03-14T19:03:02;22.73;;;8.88;;
53644;SDS011;39547;45.554;12.068;2023-03-14T19:09:04;25.45;;;10.98;;
53644;SDS011;39547;45.554;12.068;2023-03-14T19:15:09;25.05;;;10.70;;
53644;SDS011;39547;45.554;12.068;2023-03-14T19:21:11;24.08;;;11.00;;
53644;SDS011;39547;45.554;12.068;2023-03-14T19:27:14;21.73;;;10.27;;
53644;SDS011;39547;45.554;12.068;2023-03-14T19:33:15;24.20;;;11.20;;
53644;SDS011;39547;45.554;12.068;2023-03-14T19:39:18;20.83;;;8.80;;
53644;SDS011;39547;45.554;12.068;2023-03-14T19:45:19;22.60;;;10.52;;
53644;SDS011;39547;45.554;12.068;2023-03-14T19:51:21;21.27;;;9.73;;
53644;SDS011;39547;45.554;12.068;2023-03-14T19:57:23;18.95;;;8.95;;
53644;SDS011;39547;45.554;12.068;2023-03-14T20:03:24;25.20;;;11.25;;
53644;SDS011;39547;45.554;12.068;2023-03-14T20:09:26;27.85;;;13.38;;
53644;SDS011;39547;45.554;12.068;2023-03-14T20:15:27;22.73;;;10.45;;
53644;SDS011;39547;45.554;12.068;2023-03-14T20:21:29;26.50;;;13.15;;
53644;SDS011;39547;45.554;12.068;2023-03-14T20:27:32;24.05;;;10.75;;
53644;SDS011;39547;45.554;12.068;2023-03-14T20:33:33;21.80;;;11.48;;
53644;SDS011;39547;45.554;12.068;2023-03-14T20:39:35;21.98;;;10.55;;
53644;SDS011;39547;45.554;12.068;2023-03-14T20:45:36;20.20;;;9.95;;
53644;SDS011;39547;45.554;12.068;2023-03-14T20:51:38;23.98;;;12.80;;
53644;SDS011;39547;45.554;12.068;2023-03-14T20:57:39;18.77;;;9.77;;
53644;SDS011;39547;45.554;12.068;2023-03-14T21:03:41;20.45;;;9.88;;
53644;SDS011;39547;45.554;12.068;2023-03-14T21:09:42;19.10;;;9.35;;
53644;SDS011;39547;45.554;12.068;2023-03-14T21:15:44;19.15;;;9.00;;
53644;SDS011;39547;45.554;12.068;2023-03-14T21:21:45;18.73;;;8.45;;
53644;SDS011;39547;45.554;12.068;2023-03-14T21:27:47;18.73;;;8.95;;
53644;SDS011;39547;45.554;12.068;2023-03-14T21:33:49;19.83;;;9.73;;
53644;SDS011;39547;45.554;12.068;2023-03-14T21:39:51;17.83;;;8.45;;
53644;SDS011;39547;45.554;12.068;2023-03-14T21:45:53;18.17;;;8.77;;
53644;SDS011;39547;45.554;12.068;2023-03-14T21:51:55;19.63;;;9.38;;
53644;SDS011;39547;45.554;12.068;2023-03-14T21:57:57;18.83;;;9.13;;
53644;SDS011;39547;45.554;12.068;2023-03-14T22:03:58;17.95;;;8.10;;
53644;SDS011;39547;45.554;12.068;2023-03-14T22:10:00;18.25;;;9.32;;
53644;SDS011;39547;45.554;12.068;2023-03-14T22:16:01;18.30;;;9.18;;
53644;SDS011;39547;45.554;12.068;2023-03-14T22:22:03;19.80;;;9.88;;
53644;SDS011;39547;45.554;12.068;2023-03-14T22:28:05;17.58;;;7.90;;
53644;SDS011;39547;45.554;12.068;2023-03-14T22:34:06;17.65;;;8.02;;
53644;SDS011;39547;45.554;12.068;2023-03-14T22:40:08;17.17;;;7.75;;
53644;SDS011;39547;45.554;12.068;2023-03-14T22:46:10;17.52;;;8.32;;
53644;SDS011;39547;45.554;12.068;2023-03-14T22:52:11;16.63;;;7.68;;
53644;SDS011;39547;45.554;12.068;2023-03-14T22:58:13;16.63;;;7.50;;
53644;SDS011;39547;45.554;12.068;2023-03-14T23:04:15;16.77;;;7.85;;
53644;SDS011;39547;45.554;12.068;2023-03-14T23:10:16;17.35;;;7.70;;
53644;SDS011;39547;45.554;12.068;2023-03-14T23:16:18;15.18;;;6.30;;
53644;SDS011;39547;45.554;12.068;2023-03-14T23:22:23;16.25;;;7.50;;
53644;SDS011;39547;45.554;12.068;2023-03-14T23:28:25;18.45;;;7.90;;
53644;SDS011;39547;45.554;12.068;2023-03-14T23:34:26;18.33;;;8.80;;
53644;SDS011;39547;45.554;12.068;2023-03-14T23:40:28;18.00;;;8.90;;
53644;SDS011;39547;45.554;12.068;2023-03-14T23:46:29;17.15;;;7.97;;
53644;SDS011;39547;45.554;12.068;2023-03-14T23:52:31;17.67;;;8.55;;
53644;SDS011;39547;45.554;12.068;2023-03-14T23:58:32;18.98;;;8.30;;
